createdAt,value
2023-03-04T00:00:31.624Z,33.03
2023-03-04T00:02:59.349Z,35.33
2023-03-04T00:05:27.043Z,35.07
2023-03-04T00:07:54.653Z,32.60
2023-03-04T00:10:22.266Z,33.30
2023-03-04T00:12:49.887Z,30.87
2023-03-04T00:15:18.828Z,35.30
2023-03-04T00:17:46.791Z,29.67
2023-03-04T00:20:15.466Z,31.37
2023-03-04T00:22:43.105Z,34.87
2023-03-04T00:25:10.814Z,34.63
2023-03-04T00:27:38.440Z,32.50
2023-03-04T00:30:07.676Z,31.67
2023-03-04T00:32:36.736Z,33.77
2023-03-04T00:35:05.045Z,33.30
2023-03-04T00:37:32.729Z,29.83
2023-03-04T00:40:00.351Z,36.10
2023-03-04T00:42:28.016Z,34.73
2023-03-04T00:44:55.685Z,31.83
2023-03-04T00:47:23.345Z,33.03
2023-03-04T00:49:52.302Z,30.10
2023-03-04T00:52:19.956Z,31.37
2023-03-04T00:54:47.657Z,32.70
2023-03-04T00:57:15.715Z,33.20
2023-03-04T00:59:43.789Z,34.10
2023-03-04T01:02:11.667Z,32.30
2023-03-04T01:04:39.712Z,29.80
2023-03-04T01:07:08.870Z,33.47
2023-03-04T01:09:36.638Z,33.53
2023-03-04T01:12:04.495Z,38.27
2023-03-04T01:14:32.334Z,34.77
2023-03-04T01:17:00.197Z,35.67
2023-03-04T01:19:27.920Z,33.20
2023-03-04T01:21:55.677Z,32.03
2023-03-04T01:24:24.640Z,34.43
2023-03-04T01:26:52.533Z,34.37
2023-03-04T01:29:22.313Z,32.67
2023-03-04T01:31:49.959Z,31.17
2023-03-04T01:34:18.043Z,33.40
2023-03-04T01:36:45.697Z,33.30
2023-03-04T01:39:13.355Z,36.70
2023-03-04T01:41:42.487Z,33.73
2023-03-04T01:44:11.841Z,33.37
2023-03-04T01:46:42.036Z,31.37
2023-03-04T01:49:13.424Z,33.17
2023-03-04T01:51:43.287Z,31.73
2023-03-04T01:54:11.099Z,29.97
2023-03-04T01:56:41.041Z,33.00
2023-03-04T01:59:12.600Z,28.17
2023-03-04T02:01:43.003Z,29.83
2023-03-04T02:04:11.175Z,34.53
2023-03-04T02:06:41.054Z,34.87
2023-03-04T02:09:09.272Z,33.43
2023-03-04T02:11:38.143Z,30.33
2023-03-04T02:14:07.098Z,30.40
2023-03-04T02:16:36.315Z,33.70
2023-03-04T02:19:08.203Z,35.03
2023-03-04T02:21:36.075Z,29.43
2023-03-04T02:24:11.735Z,31.73
2023-03-04T02:26:43.430Z,33.37
2023-03-04T02:29:14.076Z,30.60
2023-03-04T02:31:44.058Z,31.90
2023-03-04T02:34:15.411Z,35.57
2023-03-04T02:36:44.598Z,32.53
2023-03-04T02:39:16.157Z,34.07
2023-03-04T02:41:47.304Z,30.57
2023-03-04T02:44:19.482Z,37.03
2023-03-04T02:46:47.998Z,32.77
2023-03-04T02:49:16.014Z,29.97
2023-03-04T02:51:43.830Z,31.77
2023-03-04T02:54:16.820Z,35.10
2023-03-04T02:56:50.537Z,31.70
2023-03-04T02:59:19.712Z,35.50
2023-03-04T03:01:47.729Z,34.63
2023-03-04T03:04:15.873Z,36.67
2023-03-04T03:06:45.724Z,32.80
2023-03-04T03:09:13.630Z,35.87
2023-03-04T03:11:41.577Z,33.23
2023-03-04T03:14:11.718Z,35.03
2023-03-04T03:16:39.844Z,36.90
2023-03-04T03:19:07.686Z,36.83
2023-03-04T03:21:37.136Z,33.97
2023-03-04T03:24:05.476Z,35.87
2023-03-04T03:26:33.197Z,37.13
2023-03-04T03:29:00.875Z,39.73
2023-03-04T03:31:30.946Z,40.50
2023-03-04T03:33:58.683Z,41.47
2023-03-04T03:36:27.937Z,42.23
2023-03-04T03:38:55.674Z,41.10
2023-03-04T03:41:23.380Z,46.13
2023-03-04T03:43:51.035Z,44.17
2023-03-04T03:46:18.793Z,43.70
2023-03-04T03:48:47.817Z,48.83
2023-03-04T03:51:15.531Z,42.83
2023-03-04T03:53:43.230Z,46.43
2023-03-04T03:56:10.938Z,46.90
2023-03-04T03:58:38.660Z,46.90
2023-03-04T04:01:06.673Z,44.13
2023-03-04T04:03:34.615Z,50.13
2023-03-04T04:06:04.842Z,43.13
2023-03-04T04:08:33.389Z,45.90
2023-03-04T04:11:01.059Z,39.60
2023-03-04T04:13:28.853Z,49.77
2023-03-04T04:15:56.563Z,50.20
2023-03-04T04:18:25.796Z,47.13
2023-03-04T04:20:54.702Z,38.57
2023-03-04T04:23:23.937Z,43.13
2023-03-04T04:25:51.615Z,43.57
2023-03-04T04:28:19.332Z,42.67
2023-03-04T04:30:47.214Z,43.10
2023-03-04T04:33:14.915Z,39.07
2023-03-04T04:35:42.631Z,39.27
2023-03-04T04:38:10.923Z,37.30
2023-03-04T04:40:40.005Z,43.73
2023-03-04T04:43:07.868Z,34.73
2023-03-04T04:45:36.112Z,34.37
2023-03-04T04:48:03.925Z,37.07
2023-03-04T04:50:33.021Z,43.07
2023-03-04T04:53:00.919Z,36.27
2023-03-04T04:55:28.535Z,42.57
2023-03-04T04:57:57.570Z,41.70
2023-03-04T05:00:25.441Z,41.43
2023-03-04T05:02:53.168Z,47.07
2023-03-04T05:05:21.027Z,43.90
2023-03-04T05:07:48.692Z,43.23
2023-03-04T05:10:16.846Z,46.47
2023-03-04T05:12:45.377Z,35.50
2023-03-04T05:15:14.364Z,40.97
2023-03-04T05:17:42.042Z,39.73
2023-03-04T05:20:11.127Z,42.90
2023-03-04T05:22:38.760Z,40.63
2023-03-04T05:25:07.051Z,41.77
2023-03-04T05:27:34.764Z,45.23
2023-03-04T05:30:02.531Z,45.13
2023-03-04T05:32:31.542Z,43.77
2023-03-04T05:34:59.340Z,44.97
2023-03-04T05:37:27.469Z,46.20
2023-03-04T05:39:55.144Z,41.90
2023-03-04T05:42:22.808Z,46.67
2023-03-04T05:44:50.511Z,46.13
2023-03-04T05:47:18.168Z,45.37
2023-03-04T05:49:47.245Z,45.03
2023-03-04T05:52:15.018Z,46.10
2023-03-04T05:54:42.716Z,49.83
2023-03-04T05:57:10.353Z,44.70
2023-03-04T05:59:38.124Z,49.13
2023-03-04T06:02:05.795Z,45.40
2023-03-04T06:04:33.530Z,48.87
2023-03-04T06:07:02.510Z,47.40
2023-03-04T06:09:30.218Z,51.53
2023-03-04T06:11:57.807Z,48.93
2023-03-04T06:14:25.526Z,47.77
2023-03-04T06:16:53.207Z,48.93
2023-03-04T06:19:21.177Z,50.17
2023-03-04T06:21:48.935Z,55.83
2023-03-04T06:24:18.142Z,53.07
2023-03-04T06:26:45.837Z,49.93
2023-03-04T06:29:13.570Z,54.10
2023-03-04T06:31:41.930Z,52.33
2023-03-04T06:34:10.159Z,54.67
2023-03-04T06:36:37.853Z,51.43
2023-03-04T06:39:06.503Z,49.07
2023-03-04T06:41:35.794Z,55.77
2023-03-04T06:44:03.862Z,55.90
2023-03-04T06:46:31.629Z,57.77
2023-03-04T06:48:59.466Z,53.93
2023-03-04T06:51:27.309Z,55.23
2023-03-04T06:53:55.396Z,60.10
2023-03-04T06:56:23.299Z,61.80
2023-03-04T06:58:52.609Z,56.23
2023-03-04T07:01:22.203Z,57.67
2023-03-04T07:03:51.206Z,62.83
2023-03-04T07:06:21.972Z,56.00
2023-03-04T07:08:50.265Z,61.53
2023-03-04T07:11:18.786Z,65.90
2023-03-04T07:13:46.858Z,59.10
2023-03-04T07:16:18.654Z,64.63
2023-03-04T07:18:47.326Z,60.40
2023-03-04T07:21:15.801Z,58.90
2023-03-04T07:23:43.832Z,60.80
2023-03-04T07:26:11.540Z,56.13
2023-03-04T07:28:39.325Z,70.60
2023-03-04T07:31:14.582Z,65.53
2023-03-04T07:33:43.628Z,64.60
2023-03-04T07:36:11.509Z,62.70
2023-03-04T07:38:39.190Z,69.57
2023-03-04T07:41:06.889Z,61.03
2023-03-04T07:43:34.618Z,63.63
2023-03-04T07:46:03.058Z,65.77
2023-03-04T07:48:31.113Z,72.40
2023-03-04T07:51:09.583Z,71.57
2023-03-04T07:53:38.662Z,63.37
2023-03-04T07:56:08.061Z,64.33
2023-03-04T07:58:35.739Z,76.03
2023-03-04T08:01:10.119Z,77.77
2023-03-04T08:03:37.759Z,68.63
2023-03-04T08:06:08.038Z,76.00
2023-03-04T08:08:36.267Z,69.20
2023-03-04T08:11:05.946Z,80.33
2023-03-04T08:13:33.803Z,74.10
2023-03-04T08:16:01.609Z,80.67
2023-03-04T08:18:29.313Z,78.77
2023-03-04T08:20:57.262Z,75.73
2023-03-04T08:23:26.462Z,75.23
2023-03-04T08:25:54.441Z,70.73
2023-03-04T08:28:22.248Z,73.37
2023-03-04T08:30:54.354Z,74.87
2023-03-04T08:33:22.026Z,79.17
2023-03-04T08:35:49.747Z,79.37
2023-03-04T08:38:17.448Z,77.53
2023-03-04T08:40:46.441Z,72.37
2023-03-04T08:43:14.367Z,64.77
2023-03-04T08:45:41.984Z,77.53
2023-03-04T08:48:09.617Z,74.37
2023-03-04T08:50:37.270Z,75.07
2023-03-04T08:53:05.057Z,73.70
2023-03-04T08:55:32.733Z,76.27
2023-03-04T08:58:01.794Z,72.07
2023-03-04T09:00:29.542Z,78.20
2023-03-04T09:02:57.312Z,81.57
2023-03-04T09:05:24.960Z,74.07
2023-03-04T09:07:52.602Z,79.90
2023-03-04T09:10:20.451Z,85.83
2023-03-04T09:12:48.842Z,86.03
2023-03-04T09:15:17.840Z,82.63
2023-03-04T09:17:45.488Z,84.37
2023-03-04T09:20:14.383Z,90.43
2023-03-04T09:22:43.229Z,87.23
2023-03-04T09:25:14.594Z,92.90
2023-03-04T09:27:42.399Z,88.47
2023-03-04T09:30:11.202Z,92.30
2023-03-04T09:32:41.332Z,101.47
2023-03-04T09:35:10.067Z,103.97
2023-03-04T09:37:40.306Z,95.20
2023-03-04T09:40:14.384Z,107.13
2023-03-04T09:42:47.543Z,88.50
2023-03-04T09:45:19.860Z,99.33
2023-03-04T09:47:52.426Z,86.67
2023-03-04T09:50:21.602Z,102.67
2023-03-04T09:53:07.645Z,90.77
2023-03-04T09:55:38.274Z,90.83
2023-03-04T09:58:14.947Z,90.87
2023-03-04T10:00:44.825Z,96.80
2023-03-04T10:03:19.844Z,84.70
2023-03-04T10:05:55.147Z,93.77
2023-03-04T10:08:38.900Z,101.23
2023-03-04T10:11:14.123Z,96.13
2023-03-04T10:13:52.285Z,85.77
2023-03-04T10:16:23.807Z,96.77
2023-03-04T10:18:56.976Z,104.27
2023-03-04T10:21:31.602Z,90.77
2023-03-04T10:24:02.595Z,101.40
2023-03-04T10:26:33.077Z,81.10
2023-03-04T10:29:03.001Z,94.60
2023-03-04T10:31:36.600Z,98.03
2023-03-04T10:34:07.092Z,94.57
2023-03-04T10:36:48.663Z,91.53
2023-03-04T10:39:22.774Z,93.23
2023-03-04T10:41:57.586Z,89.20
2023-03-04T10:44:26.739Z,92.70
2023-03-04T10:46:56.316Z,92.53
2023-03-04T10:49:26.658Z,91.13
2023-03-04T10:51:57.682Z,96.47
2023-03-04T10:54:28.324Z,99.10
2023-03-04T10:57:05.103Z,105.23
2023-03-04T10:59:41.456Z,100.37
2023-03-04T11:02:18.611Z,93.20
2023-03-04T11:04:56.529Z,97.57
2023-03-04T11:07:26.874Z,92.10
2023-03-04T11:09:58.241Z,92.57
2023-03-04T11:12:34.986Z,112.23
2023-03-04T11:15:03.884Z,102.17
2023-03-04T11:17:43.668Z,105.37
2023-03-04T11:20:17.640Z,96.80
2023-03-04T11:22:46.990Z,102.43
2023-03-04T11:25:27.580Z,107.53
2023-03-04T11:27:59.046Z,108.00
2023-03-04T11:30:42.313Z,109.37
2023-03-04T11:33:23.292Z,100.10
2023-03-04T11:36:09.761Z,100.53
2023-03-04T11:38:40.486Z,105.50
2023-03-04T11:41:13.412Z,112.93
2023-03-04T11:43:44.414Z,116.33
2023-03-04T11:46:31.603Z,126.70
2023-03-04T11:49:16.633Z,117.63
2023-03-04T11:51:51.177Z,121.93
2023-03-04T11:54:30.442Z,121.43
2023-03-04T11:57:01.790Z,128.07
2023-03-04T11:59:51.915Z,127.93
2023-03-04T12:02:21.825Z,143.57
2023-03-04T12:05:12.080Z,154.00
2023-03-04T12:07:51.198Z,130.93
2023-03-04T12:10:26.721Z,135.43
2023-03-04T12:13:13.953Z,148.87
2023-03-04T12:15:49.267Z,144.83
2023-03-04T12:18:31.042Z,142.50
2023-03-04T12:21:09.720Z,137.17
2023-03-04T12:24:01.228Z,151.77
2023-03-04T12:26:38.759Z,147.83
2023-03-04T12:29:16.145Z,144.07
2023-03-04T12:31:46.537Z,150.67
2023-03-04T12:34:31.243Z,147.90
2023-03-04T12:37:18.019Z,148.23
2023-03-04T12:39:55.105Z,144.37
2023-03-04T12:42:31.701Z,139.00
2023-03-04T12:45:14.173Z,146.77
2023-03-04T12:47:51.760Z,140.67
2023-03-04T12:50:32.965Z,132.17
2023-03-04T12:53:10.343Z,148.97
2023-03-04T12:55:41.822Z,147.60
2023-03-04T12:58:16.885Z,140.97
2023-03-04T13:01:00.750Z,146.77
2023-03-04T13:03:38.738Z,140.93
2023-03-04T13:06:14.608Z,131.57
2023-03-04T13:08:54.853Z,135.67
2023-03-04T13:11:52.587Z,136.30
2023-03-04T13:14:34.224Z,131.63
2023-03-04T13:17:09.956Z,136.00
2023-03-04T13:19:52.839Z,134.33
2023-03-04T13:22:43.835Z,132.73
2023-03-04T13:25:36.005Z,132.23
2023-03-04T13:28:33.112Z,128.23
2023-03-04T13:31:14.614Z,130.43
2023-03-04T13:33:49.521Z,130.30
2023-03-04T13:36:33.371Z,145.43
2023-03-04T13:39:04.344Z,134.93
2023-03-04T13:41:46.606Z,136.17
2023-03-04T13:44:57.188Z,152.80
2023-03-04T13:47:43.667Z,127.13
2023-03-04T13:50:29.789Z,138.07
2023-03-04T13:53:15.616Z,140.97
2023-03-04T13:55:44.429Z,138.43
2023-03-04T13:58:21.212Z,140.63
2023-03-04T14:00:53.120Z,141.17
2023-03-04T14:03:24.329Z,139.47
2023-03-04T14:06:12.461Z,144.57
2023-03-04T14:08:40.692Z,137.63
2023-03-04T14:11:13.831Z,133.43
2023-03-04T14:13:41.984Z,136.03
2023-03-04T14:16:11.475Z,154.67
2023-03-04T14:18:39.298Z,132.77
2023-03-04T14:21:07.432Z,146.57
2023-03-04T14:23:36.637Z,135.73
2023-03-04T14:26:09.382Z,150.20
2023-03-04T14:28:44.334Z,145.80
2023-03-04T14:31:19.077Z,141.67
2023-03-04T14:33:49.812Z,151.67
2023-03-04T14:36:21.790Z,151.67
2023-03-04T14:38:55.338Z,147.07
2023-03-04T14:41:29.006Z,146.67
2023-03-04T14:44:09.872Z,140.53
2023-03-04T14:46:46.119Z,147.00
2023-03-04T14:49:19.115Z,143.90
2023-03-04T14:51:49.416Z,154.07
2023-03-04T14:54:33.584Z,153.63
2023-03-04T14:57:15.943Z,143.70
2023-03-04T14:59:43.773Z,146.73
2023-03-04T15:02:31.105Z,138.43
2023-03-04T15:05:01.301Z,135.97
2023-03-04T15:07:34.669Z,146.30
2023-03-04T15:10:05.132Z,143.13
2023-03-04T15:12:35.197Z,152.77
2023-03-04T15:15:04.830Z,146.97
2023-03-04T15:17:38.600Z,144.23
2023-03-04T15:20:26.284Z,146.23
2023-03-04T15:23:14.804Z,138.47
2023-03-04T15:25:42.676Z,136.40
2023-03-04T15:28:17.999Z,151.80
2023-03-04T15:30:45.926Z,141.63
2023-03-04T15:33:15.233Z,150.33
2023-03-04T15:35:49.293Z,142.73
2023-03-04T15:38:17.179Z,139.73
2023-03-04T15:40:44.808Z,146.90
2023-03-04T15:43:16.280Z,157.37
2023-03-04T15:45:44.508Z,143.13
2023-03-04T15:48:15.719Z,142.90
2023-03-04T15:50:46.016Z,150.17
2023-03-04T15:53:18.434Z,147.40
2023-03-04T15:55:47.603Z,140.90
2023-03-04T15:58:15.971Z,139.17
2023-03-04T16:00:44.120Z,136.83
2023-03-04T16:03:21.389Z,158.20
2023-03-04T16:05:51.172Z,145.60
2023-03-04T16:08:21.314Z,140.40
2023-03-04T16:10:49.251Z,149.13
2023-03-04T16:13:18.706Z,146.00
2023-03-04T16:15:46.895Z,135.03
2023-03-04T16:18:16.021Z,134.30
2023-03-04T16:20:47.255Z,142.80
2023-03-04T16:23:18.686Z,134.67
2023-03-04T16:25:48.058Z,142.13
2023-03-04T16:28:15.898Z,137.57
2023-03-04T16:30:44.189Z,147.47
2023-03-04T16:33:12.504Z,133.60
2023-03-04T16:35:40.780Z,140.53
2023-03-04T16:38:23.124Z,133.97
2023-03-04T16:40:50.796Z,137.10
2023-03-04T16:43:18.463Z,134.83
2023-03-04T16:45:46.207Z,131.33
2023-03-04T16:48:13.868Z,137.67
2023-03-04T16:50:41.924Z,134.13
2023-03-04T16:53:24.105Z,138.47
2023-03-04T16:55:51.874Z,130.90
2023-03-04T16:58:19.552Z,130.97
2023-03-04T17:00:47.746Z,137.20
2023-03-04T17:03:15.449Z,140.60
2023-03-04T17:05:44.299Z,134.70
2023-03-04T17:08:11.952Z,135.37
2023-03-04T17:10:40.990Z,138.10
2023-03-04T17:13:08.829Z,132.10
2023-03-04T17:15:36.634Z,142.40
2023-03-04T17:18:04.382Z,136.63
2023-03-04T17:20:32.075Z,138.30
2023-03-04T17:22:59.856Z,134.97
2023-03-04T17:25:27.490Z,134.27
2023-03-04T17:27:56.474Z,146.50
2023-03-04T17:30:24.156Z,136.07
2023-03-04T17:32:51.821Z,123.33
2023-03-04T17:35:19.491Z,133.80
2023-03-04T17:37:47.217Z,130.73
2023-03-04T17:40:15.172Z,142.23
2023-03-04T17:42:43.283Z,131.83
2023-03-04T17:45:12.714Z,134.07
2023-03-04T17:47:40.429Z,128.27
2023-03-04T17:50:09.557Z,142.50
2023-03-04T17:52:37.228Z,130.33
2023-03-04T17:55:05.527Z,128.40
2023-03-04T17:57:36.772Z,133.93
2023-03-04T18:00:05.975Z,133.67
2023-03-04T18:02:35.040Z,135.87
2023-03-04T18:05:05.683Z,127.83
2023-03-04T18:07:33.446Z,131.13
2023-03-04T18:10:01.190Z,136.93
2023-03-04T18:12:28.910Z,122.30
2023-03-04T18:14:56.712Z,134.07
2023-03-04T18:17:24.445Z,134.93
2023-03-04T18:19:53.376Z,131.33
2023-03-04T18:22:21.094Z,133.83
2023-03-04T18:24:49.141Z,122.20
2023-03-04T18:27:16.792Z,115.07
2023-03-04T18:29:44.427Z,138.80
2023-03-04T18:32:12.183Z,131.70
2023-03-04T18:34:39.890Z,128.63
2023-03-04T18:37:09.432Z,128.43
2023-03-04T18:39:37.157Z,132.07
2023-03-04T18:42:04.967Z,134.03
2023-03-04T18:44:32.939Z,127.87
2023-03-04T18:47:00.796Z,134.63
2023-03-04T18:49:28.592Z,121.00
2023-03-04T18:51:56.223Z,127.60
2023-03-04T18:54:25.201Z,134.87
2023-03-04T18:56:55.554Z,132.03
2023-03-04T18:59:27.784Z,123.63
2023-03-04T19:01:55.926Z,129.90
2023-03-04T19:04:27.204Z,128.33
2023-03-04T19:06:55.050Z,135.37
2023-03-04T19:09:23.070Z,130.83
2023-03-04T19:11:52.106Z,128.33
2023-03-04T19:14:19.759Z,128.40
2023-03-04T19:16:47.483Z,129.80
2023-03-04T19:19:15.590Z,135.53
2023-03-04T19:21:43.290Z,126.13
2023-03-04T19:24:10.947Z,133.90
2023-03-04T19:26:39.951Z,127.50
2023-03-04T19:29:09.001Z,129.87
2023-03-04T19:31:41.351Z,121.63
2023-03-04T19:34:09.611Z,122.77
2023-03-04T19:36:37.263Z,120.07
2023-03-04T19:39:05.233Z,128.57
2023-03-04T19:41:33.137Z,120.37
2023-03-04T19:44:00.812Z,117.53
2023-03-04T19:46:32.143Z,114.40
2023-03-04T19:49:02.300Z,116.33
2023-03-04T19:51:32.094Z,134.23
2023-03-04T19:54:00.589Z,126.63
2023-03-04T19:56:28.384Z,133.97
2023-03-04T19:58:57.183Z,130.37
2023-03-04T20:01:28.177Z,128.60
2023-03-04T20:03:58.775Z,131.47
2023-03-04T20:06:27.170Z,130.17
2023-03-04T20:08:58.191Z,121.03
2023-03-04T20:11:26.627Z,131.87
2023-03-04T20:13:54.960Z,134.27
2023-03-04T20:16:22.642Z,120.80
2023-03-04T20:18:50.347Z,128.13
2023-03-04T20:21:19.579Z,129.87
2023-03-04T20:23:47.895Z,135.30
2023-03-04T20:26:15.667Z,115.10
2023-03-04T20:28:50.501Z,132.63
2023-03-04T20:31:21.454Z,135.03
2023-03-04T20:33:50.273Z,124.73
2023-03-04T20:36:20.781Z,126.53
2023-03-04T20:38:48.838Z,130.30
2023-03-04T20:41:17.238Z,123.97
2023-03-04T20:43:44.947Z,136.83
2023-03-04T20:46:26.545Z,143.50
2023-03-04T20:48:54.404Z,138.97
2023-03-04T20:51:26.074Z,131.33
2023-03-04T20:53:55.244Z,131.10
2023-03-04T20:56:24.136Z,120.30
2023-03-04T20:58:51.993Z,131.17
2023-03-04T21:01:19.799Z,125.10
2023-03-04T21:03:48.647Z,129.37
2023-03-04T21:06:16.801Z,127.37
2023-03-04T21:08:45.986Z,112.33
2023-03-04T21:11:13.898Z,117.03
2023-03-04T21:13:42.973Z,131.70
2023-03-04T21:16:15.017Z,132.93
2023-03-04T21:18:44.345Z,111.70
2023-03-04T21:21:14.115Z,122.80
2023-03-04T21:23:41.856Z,119.07
2023-03-04T21:26:10.840Z,120.03
2023-03-04T21:28:38.482Z,121.20
2023-03-04T21:31:07.235Z,117.63
2023-03-04T21:33:36.872Z,121.23
2023-03-04T21:36:04.982Z,119.90
2023-03-04T21:38:32.776Z,120.23
2023-03-04T21:41:00.436Z,125.07
2023-03-04T21:43:29.465Z,120.93
2023-03-04T21:46:00.587Z,118.87
2023-03-04T21:48:28.224Z,114.10
2023-03-04T21:50:55.875Z,122.33
2023-03-04T21:53:23.782Z,122.17
2023-03-04T21:55:53.108Z,121.63
2023-03-04T21:58:21.021Z,116.97
2023-03-04T22:00:51.686Z,123.57
2023-03-04T22:03:20.981Z,125.60
2023-03-04T22:05:48.798Z,124.77
2023-03-04T22:08:18.739Z,119.77
2023-03-04T22:10:47.827Z,114.93
2023-03-04T22:13:16.503Z,124.50
2023-03-04T22:15:45.435Z,125.50
2023-03-04T22:18:15.397Z,119.90
2023-03-04T22:20:45.034Z,123.07
2023-03-04T22:23:13.852Z,112.93
2023-03-04T22:25:42.308Z,120.00
2023-03-04T22:28:09.983Z,108.83
2023-03-04T22:30:37.707Z,117.63
2023-03-04T22:33:05.855Z,107.17
2023-03-04T22:35:34.924Z,114.73
2023-03-04T22:38:02.820Z,109.33
2023-03-04T22:40:30.829Z,108.03
2023-03-04T22:42:58.460Z,118.60
2023-03-04T22:45:28.170Z,117.30
2023-03-04T22:47:55.868Z,118.37
2023-03-04T22:50:23.550Z,124.50
2023-03-04T22:52:52.822Z,120.03
2023-03-04T22:55:22.804Z,116.07
2023-03-04T22:57:50.729Z,115.00
2023-03-04T23:00:22.107Z,119.87
2023-03-04T23:02:50.556Z,129.37
2023-03-04T23:05:20.732Z,132.40
2023-03-04T23:07:48.927Z,130.93
2023-03-04T23:10:19.952Z,116.73
2023-03-04T23:12:47.747Z,127.10
2023-03-04T23:15:17.408Z,117.23
2023-03-04T23:17:45.598Z,118.27
2023-03-04T23:20:15.832Z,121.03
2023-03-04T23:22:43.489Z,113.17
2023-03-04T23:25:12.329Z,122.70
2023-03-04T23:27:42.829Z,127.53
2023-03-04T23:30:16.049Z,118.17
2023-03-04T23:32:44.231Z,122.70
2023-03-04T23:35:11.930Z,125.73
2023-03-04T23:37:39.608Z,125.77
2023-03-04T23:40:08.749Z,119.40
2023-03-04T23:42:36.415Z,134.40
2023-03-04T23:45:06.908Z,122.87
2023-03-04T23:47:35.553Z,133.93
2023-03-04T23:50:03.789Z,131.57
2023-03-04T23:52:31.750Z,122.73
2023-03-04T23:54:59.459Z,119.67
2023-03-04T23:57:27.150Z,126.77
2023-03-04T23:59:54.770Z,125.87
